WIDD/BTH METAR and TAF weather

Enter ICAO airport designator
Station Type Date Time Source
WIDD METAR 2021/09/23 23:00 UTC NOAA

WIDD 232300Z 00000KT 9999 FEW014 26/25 Q1011 NOSIG


Station Type Date Time Source
WIDD Decoded METAR 2021/09/23 23:00 UTC NOAA

Station name not available
Sep 23, 2021 - 07:00 PM EDT / 2021.09.23 2300 UTC
Wind: Calm:0
Visibility: greater than 7 mile(s):0
Sky conditions: mostly clear
Temperature: 78 F (26 C)
Dew Point: 77 F (25 C)
Relative Humidity: 94%
Pressure (altimeter): 29.85 in. Hg (1011 hPa)
ob: WIDD 232300Z 00000KT 9999 FEW014 26/25 Q1011 NOSIG
cycle: 23

Station Type Date Time Source
WIDD TAF 2021/09/23 18:00 UTC NOAA

TAF WIDD 231700Z 2318/2418 15004KT 9999 FEW014=

Example: see airport list